Time;durP1;ratioP1;P1;durP2;ratioP2;P2;SDS_P1;SDS_P2;PMS_P1;PMS_P2;Temp;Humidity;BMP_temperature;BMP_pressure;BME280_temperature;BME280_humidity;BME280_pressure;Samples;Min_cycle;Max_cycle;Signal;HPM_P1;HPM_P2
2024/04/11 00:00:53;;;;;;;4.80;1.30;;;;;;;-145.69;59.82;52123.56;5491640;26;20219;-78
2024/04/11 00:03:21;;;;;;;6.33;1.70;;;;;;;-145.69;60.11;52119.63;5491147;26;20226;-79
2024/04/11 00:05:47;;;;;;;3.97;1.27;;;;;;;-145.69;59.67;52147.34;5491677;26;20223;-78
2024/04/11 00:08:15;;;;;;;6.77;1.73;;;;;;;-145.69;60.17;52123.56;5524285;26;20272;-78
2024/04/11 00:10:40;;;;;;;10.00;1.53;;;;;;;-145.69;61.07;52141.41;5528402;26;20217;-78
2024/04/11 00:13:11;;;;;;;3.37;1.33;;;;;;;-145.69;61.41;52141.41;5528314;26;20346;-79
2024/04/11 00:15:36;;;;;;;2.23;1.27;;;;;;;-145.69;61.23;52192.88;5528135;26;20544;-78
2024/04/11 00:18:05;;;;;;;5.97;1.47;;;;;;;-145.69;61.81;52137.44;5527815;26;20233;-78
2024/04/11 00:20:30;;;;;;;7.03;1.67;;;;;;;-145.69;62.45;52153.28;5528108;26;20792;-79
2024/04/11 00:22:58;;;;;;;6.50;1.80;;;;;;;-145.69;62.17;52139.41;5527081;26;20241;-79
2024/04/11 00:25:24;;;;;;;6.23;2.00;;;;;;;-145.69;62.30;52143.38;5528094;26;20234;-78
2024/04/11 00:27:53;;;;;;;9.50;2.00;;;;;;;-145.69;62.91;52151.28;5527797;26;20268;-79
2024/04/11 00:30:21;;;;;;;8.90;1.83;;;;;;;-145.69;62.71;52133.47;5528170;26;20328;-77
2024/04/11 00:32:50;;;;;;;5.40;1.60;;;;;;;-145.69;62.56;52127.53;5527751;26;20260;-77
2024/04/11 00:35:17;;;;;;;6.93;1.90;;;;;;;-145.69;62.46;52143.38;5528196;26;20223;-78
2024/04/11 00:37:45;;;;;;;10.70;2.13;;;;;;;-145.69;62.73;52127.53;5527361;26;20268;-79
2024/04/11 00:40:11;;;;;;;5.07;1.80;;;;;;;-145.69;62.55;52135.47;5527665;26;20221;-76
2024/04/11 00:42:39;;;;;;;6.10;2.00;;;;;;;-145.69;62.62;52147.34;5527426;26;20225;-79
2024/04/11 00:45:07;;;;;;;9.73;2.00;;;;;;;-145.69;62.79;52139.41;5527995;26;20607;-78
2024/04/11 00:47:40;;;;;;;7.97;1.80;;;;;;;-145.69;62.54;52133.47;5527508;26;20225;-78
2024/04/11 00:50:06;;;;;;;6.47;1.40;;;;;;;-145.69;62.43;52155.25;5516730;25;20561;-78
2024/04/11 00:52:35;;;;;;;3.33;1.83;;;;;;;-145.69;62.65;52143.38;5524219;26;20234;-78
2024/04/11 00:55:00;;;;;;;11.53;1.90;;;;;;;-145.69;63.05;52143.38;5527767;26;20226;-79
2024/04/11 00:57:29;;;;;;;5.57;1.93;;;;;;;-145.69;63.05;52131.50;5527493;26;20275;-78
2024/04/11 00:59:56;;;;;;;5.60;2.17;;;;;;;-145.69;63.22;52153.28;5527305;26;20240;-78
2024/04/11 01:02:24;;;;;;;7.60;1.90;;;;;;;-145.69;62.69;52153.28;5527091;26;20260;-78
2024/04/11 01:04:52;;;;;;;10.13;2.00;;;;;;;-145.69;62.76;52147.34;5527121;26;20260;-77
2024/04/11 01:07:20;;;;;;;3.70;2.13;;;;;;;-145.69;63.11;52107.72;5526119;26;20272;-78
2024/04/11 01:09:46;;;;;;;9.40;2.30;;;;;;;-145.69;63.17;52196.84;5527194;26;20222;-78
2024/04/11 01:12:16;;;;;;;3.93;2.10;;;;;;;-145.69;63.17;52151.28;5527226;26;20264;-78
2024/04/11 01:14:43;;;;;;;7.83;2.20;;;;;;;-145.69;63.61;52125.56;5524938;26;20237;-79
2024/04/11 01:17:13;;;;;;;7.03;2.00;;;;;;;-145.69;62.93;52159.22;5527142;26;20718;-77
2024/04/11 01:19:40;;;;;;;7.80;2.57;;;;;;;-145.69;63.00;52159.22;5526927;26;20260;-78
2024/04/11 01:22:11;;;;;;;2.90;2.00;;;;;;;-145.69;62.76;52204.75;5526571;26;20294;-78
2024/04/11 01:24:40;;;;;;;4.97;1.70;;;;;;;-145.69;63.09;52141.41;5527523;26;20595;-78
2024/04/11 01:27:09;;;;;;;7.33;1.73;;;;;;;-145.69;63.42;52155.25;5526888;26;20756;-78
2024/04/11 01:29:35;;;;;;;7.47;1.83;;;;;;;-145.69;63.39;52159.22;5526752;26;20294;-78
2024/04/11 01:32:03;;;;;;;6.90;2.07;;;;;;;-145.69;63.49;52127.53;5526803;26;20234;-79
2024/04/11 01:34:30;;;;;;;11.70;2.47;;;;;;;-145.69;63.66;52143.38;5526590;26;20264;-78
2024/04/11 01:36:58;;;;;;;14.15;2.42;;;;;;;-145.69;64.01;52159.22;5525155;26;20436;-79
2024/04/11 01:39:24;;;;;;;11.17;2.00;;;;;;;-145.69;64.06;52135.47;5527187;26;20263;-79
2024/04/11 01:41:55;;;;;;;8.77;1.83;;;;;;;-145.69;63.39;52131.50;5526788;26;20225;-79
2024/04/11 01:44:21;;;;;;;7.93;2.70;;;;;;;-145.69;63.79;52159.22;5527029;26;20302;-77
2024/04/11 01:46:52;;;;;;;8.20;2.30;;;;;;;-145.69;63.64;52159.22;5526633;26;20234;-80
2024/04/11 01:49:18;;;;;;;2.60;1.90;;;;;;;-145.69;65.33;52139.41;5526669;26;20230;-78
2024/04/11 01:51:46;;;;;;;6.13;2.20;;;;;;;-145.69;65.11;52179.03;5526003;26;20267;-77
2024/04/11 01:54:12;;;;;;;7.90;2.40;;;;;;;-145.69;64.76;52149.31;5525604;26;20225;-77
2024/04/11 01:56:40;;;;;;;7.20;2.00;;;;;;;-145.69;64.21;52151.28;5526969;26;20225;-78
2024/04/11 01:59:08;;;;;;;4.00;2.40;;;;;;;-145.69;65.55;52131.50;5526693;26;20225;-77
2024/04/11 02:01:37;;;;;;;5.43;2.33;;;;;;;-145.69;64.98;52129.50;5526554;26;20642;-79
2024/04/11 02:04:05;;;;;;;7.73;2.30;;;;;;;-145.69;65.36;52149.31;5526459;26;20222;-77
2024/04/11 02:06:34;;;;;;;8.07;2.50;;;;;;;-145.69;64.63;52121.59;5526638;26;20260;-77
2024/04/11 02:09:05;;;;;;;11.53;2.80;;;;;;;-145.69;64.26;52181.00;5525643;26;20270;-77
2024/04/11 02:11:34;;;;;;;8.47;2.90;;;;;;;-145.69;64.50;52145.34;5526118;26;20217;-78
2024/04/11 02:14:01;;;;;;;10.07;2.53;;;;;;;-145.69;64.61;52151.28;5526049;26;20226;-77
2024/04/11 02:16:36;;;;;;;9.07;3.13;;;;;;;-145.69;64.29;52131.50;5526411;26;20325;-79
2024/04/11 02:19:06;;;;;;;6.20;3.00;;;;;;;-145.69;64.16;52135.47;5526590;26;20325;-79
2024/04/11 02:21:34;;;;;;;9.97;2.53;;;;;;;-145.69;64.35;52175.06;5526197;26;20214;-79
2024/04/11 02:24:00;;;;;;;15.37;2.67;;;;;;;-145.69;64.10;52163.19;5525814;26;20283;-79
2024/04/11 02:26:29;;;;;;;6.73;2.63;;;;;;;-145.69;64.73;52135.47;5525966;26;20704;-80
2024/04/11 02:28:55;;;;;;;9.43;2.70;;;;;;;-145.69;64.59;52131.50;5525659;26;20290;-79
2024/04/11 02:31:23;;;;;;;10.30;2.47;;;;;;;-145.69;64.09;52135.47;5526335;26;20707;-77
2024/04/11 02:33:53;;;;;;;8.40;2.57;;;;;;;-145.69;64.36;52143.38;5526130;26;20735;-79
2024/04/11 02:36:22;;;;;;;4.13;2.63;;;;;;;-145.69;64.18;52143.38;5526430;26;20305;-80
2024/04/11 02:38:47;;;;;;;4.83;2.23;;;;;;;-145.69;63.87;52159.22;5525734;26;20221;-80
2024/04/11 02:41:16;;;;;;;7.27;2.50;;;;;;;-145.69;63.91;52190.91;5526292;26;20263;-79
2024/04/11 02:43:41;;;;;;;8.50;2.43;;;;;;;-145.69;64.64;52151.28;5525098;26;20225;-80
2024/04/11 02:46:15;;;;;;;4.53;2.53;;;;;;;-145.69;64.74;52159.22;5526075;26;20308;-79
2024/04/11 02:48:41;;;;;;;6.20;1.97;;;;;;;-145.69;65.01;52143.38;5525911;26;20221;-79
2024/04/11 02:51:11;;;;;;;4.70;2.30;;;;;;;-145.69;64.94;52143.38;5525922;26;20271;-79
2024/04/11 02:53:38;;;;;;;7.53;2.33;;;;;;;-145.69;65.15;52163.19;5525369;26;20230;-79
2024/04/11 02:56:07;;;;;;;6.20;1.80;;;;;;;-145.69;65.36;52181.00;5520786;25;20270;-78
2024/04/11 02:58:33;;;;;;;2.93;2.17;;;;;;;-145.69;65.45;52163.19;5502000;26;20225;-78
2024/04/11 03:01:01;;;;;;;8.97;2.20;;;;;;;-145.69;65.11;52139.41;5525094;26;20293;-78
2024/04/11 03:03:27;;;;;;;3.97;1.80;;;;;;;-145.69;65.51;52163.19;5525820;26;20596;-78
2024/04/11 03:05:55;;;;;;;4.60;2.40;;;;;;;-145.69;65.33;52141.41;5526017;26;20225;-78
2024/04/11 03:08:23;;;;;;;4.17;2.30;;;;;;;-145.69;65.61;52165.16;5525659;26;20274;-79
2024/04/11 03:10:52;;;;;;;4.57;1.80;;;;;;;-145.69;65.82;52155.25;5525381;26;20796;-78
2024/04/11 03:13:20;;;;;;;6.07;2.13;;;;;;;-145.69;65.90;52175.06;5524924;26;20232;-79
2024/04/11 03:15:45;;;;;;;6.73;2.90;;;;;;;-145.69;65.63;52194.88;5524706;26;20221;-78
2024/04/11 03:18:14;;;;;;;5.63;2.27;;;;;;;-145.69;65.72;52159.22;5525186;26;20217;-78
2024/04/11 03:20:39;;;;;;;3.80;2.03;;;;;;;-145.69;66.03;52173.09;5525652;26;20225;-79
2024/04/11 03:23:07;;;;;;;5.77;2.10;;;;;;;-145.69;65.66;52151.28;5525014;26;20303;-77
2024/04/11 03:25:35;;;;;;;6.50;1.93;;;;;;;-145.69;65.72;52157.25;5525541;26;20610;-78
2024/04/11 03:28:04;;;;;;;8.13;2.60;;;;;;;-145.69;65.90;52179.03;5524867;26;20720;-77
2024/04/11 03:30:30;;;;;;;7.40;2.10;;;;;;;-145.69;66.27;52143.38;5525671;26;20255;-77
2024/04/11 03:32:58;;;;;;;7.03;2.07;;;;;;;-145.69;66.01;52153.28;5525049;26;20222;-78
2024/04/11 03:35:24;;;;;;;5.37;2.07;;;;;;;-145.69;66.04;52147.34;5525309;26;20221;-80
2024/04/11 03:37:52;;;;;;;5.00;2.50;;;;;;;-145.69;66.78;52179.03;5525056;26;20264;-76
2024/04/11 03:40:17;;;;;;;5.37;2.63;;;;;;;-145.69;66.54;52163.19;5524540;26;20255;-79
2024/04/11 03:42:48;;;;;;;7.03;2.70;;;;;;;-145.69;66.54;52184.97;5524854;26;20230;-77
2024/04/11 03:45:22;;;;;;;4.17;2.33;;;;;;;-145.69;66.36;52190.91;5525311;26;20217;-78
2024/04/11 03:47:51;;;;;;;7.47;2.40;;;;;;;-145.69;66.48;52184.97;5525073;26;20221;-79
2024/04/11 03:50:19;;;;;;;7.90;2.67;;;;;;;-145.69;67.40;52181.00;5524882;26;20335;-77
2024/04/11 03:52:45;;;;;;;8.80;2.60;;;;;;;-145.69;66.57;52188.91;5523680;26;20225;-79
2024/04/11 03:55:13;;;;;;;3.77;2.43;;;;;;;-145.69;67.35;52143.38;5523350;26;20610;-80
2024/04/11 03:57:38;;;;;;;4.83;2.63;;;;;;;-145.69;67.74;52177.03;5524503;26;20221;-79
2024/04/11 04:00:10;;;;;;;5.43;2.33;;;;;;;-145.69;66.77;52167.13;5524868;26;21029;-79
2024/04/11 04:02:36;;;;;;;7.40;2.83;;;;;;;-145.69;66.78;52151.28;5524853;26;20275;-80
2024/04/11 04:05:07;;;;;;;7.17;2.33;;;;;;;-145.69;66.88;52167.13;5523980;26;20221;-79
2024/04/11 04:07:33;;;;;;;3.23;2.13;;;;;;;-145.69;67.50;52165.16;5523897;26;20727;-79
2024/04/11 04:10:02;;;;;;;5.97;2.60;;;;;;;-145.69;66.76;52186.94;5524709;26;20273;-79
2024/04/11 04:12:29;;;;;;;9.93;2.40;;;;;;;-145.69;66.90;52188.91;5523456;26;20233;-78
2024/04/11 04:14:57;;;;;;;8.53;2.47;;;;;;;-145.69;66.73;52143.38;5524561;26;20264;-79
2024/04/11 04:17:27;;;;;;;7.07;2.37;;;;;;;-145.69;66.86;52171.09;5524539;26;20226;-79
2024/04/11 04:19:55;;;;;;;5.83;2.67;;;;;;;-145.69;67.01;52173.09;5523646;26;20755;-78
2024/04/11 04:22:20;;;;;;;6.30;2.30;;;;;;;-145.69;67.60;52167.13;5522997;26;20226;-78
2024/04/11 04:24:52;;;;;;;8.93;3.13;;;;;;;-145.69;67.66;52190.91;5523474;26;20268;-79
2024/04/11 04:27:17;;;;;;;8.43;2.60;;;;;;;-145.69;67.45;52186.94;5523532;26;20230;-78
2024/04/11 04:29:46;;;;;;;7.97;2.70;;;;;;;-145.69;67.66;52157.25;5527311;26;20249;-80
2024/04/11 04:32:13;;;;;;;4.47;2.37;;;;;;;-145.69;68.07;52179.03;5527887;26;20256;-79
2024/04/11 04:34:45;;;;;;;10.13;2.60;;;;;;;-145.69;68.13;52194.88;5528041;26;20268;-77
2024/04/11 04:37:11;;;;;;;6.23;2.30;;;;;;;-145.69;67.49;52167.13;5528077;26;20225;-79
2024/04/11 04:39:41;;;;;;;8.83;2.50;;;;;;;-145.69;67.42;52159.22;5527884;26;20268;-80
2024/04/11 04:42:07;;;;;;;7.93;2.33;;;;;;;-145.69;67.37;52177.03;5527244;26;20264;-78
2024/04/11 04:44:37;;;;;;;3.60;2.00;;;;;;;-145.69;67.59;52181.00;5527935;26;20221;-78
2024/04/11 04:47:15;;;;;;;4.10;2.47;;;;;;;-145.69;68.47;52179.03;5527190;26;20210;-77
2024/04/11 04:49:45;;;;;;;8.43;2.23;;;;;;;-145.69;67.87;52181.00;5527507;26;20225;-77
2024/04/11 04:52:13;;;;;;;7.03;2.77;;;;;;;-145.69;69.07;52165.16;5527574;26;20237;-79
2024/04/11 04:54:39;;;;;;;8.60;2.70;;;;;;;-145.69;69.01;52194.88;5526768;26;20232;-79
2024/04/11 04:57:07;;;;;;;4.50;2.47;;;;;;;-145.69;68.86;52165.16;5527384;26;20279;-79
2024/04/11 04:59:33;;;;;;;4.43;2.47;;;;;;;-145.69;69.69;52169.13;5497137;26;20273;-77
2024/04/11 05:02:03;;;;;;;10.67;2.53;;;;;;;-145.69;69.02;52194.88;5490402;26;20226;-78
2024/04/11 05:04:32;;;;;;;10.10;3.33;;;;;;;-145.69;69.78;52159.22;5490444;26;20222;-77
2024/04/11 05:07:03;;;;;;;8.93;3.07;;;;;;;-145.69;69.12;52137.44;5490636;26;20315;-77
2024/04/11 05:09:28;;;;;;;7.23;3.37;;;;;;;-145.69;69.40;52153.28;5494917;26;20585;-77
2024/04/11 05:11:57;;;;;;;10.07;3.20;;;;;;;-145.69;69.66;52181.00;5527757;26;20229;-79
2024/04/11 05:14:23;;;;;;;8.33;3.50;;;;;;;-145.69;69.90;52155.25;5526935;26;20262;-77
2024/04/11 05:16:52;;;;;;;4.80;2.23;;;;;;;-145.69;69.21;52145.34;5527409;26;20233;-78
2024/04/11 05:19:18;;;;;;;4.27;2.30;;;;;;;-145.69;68.62;52169.13;5526100;26;20225;-77
2024/04/11 05:21:46;;;;;;;5.47;2.10;;;;;;;-145.69;69.10;52163.19;5526278;26;20261;-78
2024/04/11 05:24:18;;;;;;;7.40;2.90;;;;;;;-145.69;69.49;52186.94;5526156;26;20276;-78
2024/04/11 05:26:48;;;;;;;9.43;2.90;;;;;;;-145.69;69.61;52173.09;5527188;26;20226;-78
2024/04/11 05:29:15;;;;;;;4.90;2.57;;;;;;;-145.69;69.59;52163.19;5527060;26;20233;-80
2024/04/11 05:31:43;;;;;;;5.37;2.83;;;;;;;-145.69;69.91;52202.78;5526903;26;20229;-78
2024/04/11 05:34:13;;;;;;;7.20;2.73;;;;;;;-145.69;69.81;52171.09;5527094;26;20222;-77
2024/04/11 05:36:43;;;;;;;6.87;3.57;;;;;;;-145.69;70.07;52149.31;5527226;26;20256;-81
2024/04/11 05:39:09;;;;;;;5.23;3.13;;;;;;;-145.69;69.50;52147.34;5525666;26;20226;-79
2024/04/11 05:41:42;;;;;;;6.83;2.90;;;;;;;-145.69;69.61;52167.13;5527021;26;20269;-79
2024/04/11 05:44:08;;;;;;;8.57;2.57;;;;;;;-145.69;69.24;52163.19;5526981;26;20214;-79
2024/04/11 05:46:40;;;;;;;7.73;2.50;;;;;;;-145.69;69.96;52184.97;5526979;26;20340;-79
2024/04/11 05:49:06;;;;;;;10.13;3.13;;;;;;;-145.69;69.67;52139.41;5526750;26;20748;-78
2024/04/11 05:51:35;;;;;;;4.70;2.30;;;;;;;-145.69;69.42;52165.16;5527090;26;20319;-78
2024/04/11 05:54:01;;;;;;;10.70;3.20;;;;;;;-145.69;69.40;52169.13;5525538;26;20233;-79
2024/04/11 05:56:30;;;;;;;5.80;2.97;;;;;;;-145.69;69.49;52151.28;5526870;26;20230;-78
2024/04/11 05:58:59;;;;;;;4.53;2.63;;;;;;;-145.69;69.46;52153.28;5526397;26;20264;-79
2024/04/11 06:01:33;;;;;;;4.07;2.20;;;;;;;-145.69;69.29;52177.03;5525814;26;20257;-79
2024/04/11 06:03:59;;;;;;;4.93;2.90;;;;;;;-145.69;69.91;52171.09;5525416;26;20244;-78
2024/04/11 06:06:27;;;;;;;4.43;2.63;;;;;;;-145.69;69.58;52175.06;5526685;26;20233;-78
2024/04/11 06:08:55;;;;;;;6.17;2.50;;;;;;;-145.69;69.64;52159.22;5526081;26;20264;-78
2024/04/11 06:11:23;;;;;;;5.33;2.63;;;;;;;-145.69;69.56;52155.25;5526241;26;20263;-79
2024/04/11 06:13:48;;;;;;;13.20;2.77;;;;;;;-145.69;69.64;52155.25;5526196;26;20268;-77
2024/04/11 06:16:19;;;;;;;8.53;2.90;;;;;;;-145.69;69.50;52167.13;5526095;26;20233;-80
2024/04/11 06:18:45;;;;;;;6.20;2.70;;;;;;;-145.69;69.40;52175.06;5526360;26;20218;-80
2024/04/11 06:21:18;;;;;;;4.57;2.20;;;;;;;-145.69;69.34;52163.19;5526671;26;20264;-78
2024/04/11 06:23:44;;;;;;;6.30;2.40;;;;;;;-145.69;68.80;52169.13;5525350;26;20593;-79
2024/04/11 06:26:13;;;;;;;6.07;2.40;;;;;;;-145.69;68.98;52143.38;5526627;26;20233;-79
2024/04/11 06:28:39;;;;;;;7.03;3.00;;;;;;;-145.69;68.95;52177.03;5526105;26;20287;-80
2024/04/11 06:31:08;;;;;;;8.67;2.73;;;;;;;-145.69;68.92;52167.13;5526059;26;20229;-79
2024/04/11 06:33:40;;;;;;;3.63;2.50;;;;;;;-145.69;68.48;52188.91;5526137;26;20277;-80
2024/04/11 06:36:10;;;;;;;4.73;2.40;;;;;;;-145.69;68.62;52153.28;5526348;26;20221;-79
2024/04/11 06:38:36;;;;;;;4.17;2.67;;;;;;;-145.69;68.42;52139.41;5525945;26;20273;-79
2024/04/11 06:41:08;;;;;;;8.13;3.23;;;;;;;-145.69;68.15;52141.41;5526213;26;20222;-79
2024/04/11 06:43:34;;;;;;;9.43;3.63;;;;;;;-145.69;67.95;52151.28;5526048;26;20350;-79
2024/04/11 06:46:06;;;;;;;7.80;3.37;;;;;;;-145.69;67.65;52139.41;5526205;26;20229;-78
2024/04/11 06:48:32;;;;;;;9.53;3.23;;;;;;;-145.69;67.71;52143.38;5525590;26;20226;-78
2024/04/11 06:51:06;;;;;;;8.83;3.50;;;;;;;-145.69;67.43;52149.31;5518023;25;20728;-78
2024/04/11 06:53:32;;;;;;;8.23;4.30;;;;;;;-145.69;66.51;52135.47;5524985;26;20549;-79
2024/04/11 06:56:00;;;;;;;7.60;3.57;;;;;;;-145.69;67.02;52147.34;5525763;26;20276;-78
2024/04/11 06:58:26;;;;;;;5.23;2.57;;;;;;;-145.69;66.48;52125.56;5525305;26;20253;-78
2024/04/11 07:00:59;;;;;;;8.47;3.13;;;;;;;-145.69;65.31;52109.72;5525838;26;20225;-78
2024/04/11 07:03:26;;;;;;;7.47;2.80;;;;;;;-145.69;65.33;52115.66;5525301;26;20294;-79
2024/04/11 07:05:56;;;;;;;5.77;2.90;;;;;;;-145.69;65.04;52147.34;5525553;26;20608;-79
2024/04/11 07:08:29;;;;;;;6.90;3.03;;;;;;;-145.69;64.81;52131.50;5524104;26;20229;-78
2024/04/11 07:10:58;;;;;;;8.47;3.53;;;;;;;-145.69;63.99;52157.25;5525672;26;20221;-78
2024/04/11 07:13:25;;;;;;;6.03;2.30;;;;;;;-145.69;64.31;52173.09;5525291;26;20226;-78
2024/04/11 07:15:58;;;;;;;6.43;2.83;;;;;;;-145.69;63.16;52123.56;5525314;26;20689;-78
2024/04/11 07:18:34;;;;;;;5.83;2.50;;;;;;;-145.69;61.03;52127.53;5524840;26;20316;-78
2024/04/11 07:21:07;;;;;;;10.60;2.87;;;;;;;-145.69;60.60;52109.72;5525615;26;20258;-79
2024/04/11 07:23:42;;;;;;;4.73;2.50;;;;;;;-145.69;61.05;52125.56;5523644;26;20291;-78
2024/04/11 07:26:11;;;;;;;5.43;2.30;;;;;;;-145.69;60.21;52125.56;5524663;26;20233;-78
2024/04/11 07:28:39;;;;;;;6.80;2.13;;;;;;;-145.69;59.97;52129.50;5525399;26;20325;-79
2024/04/11 07:31:08;;;;;;;6.57;2.70;;;;;;;-145.69;58.93;52121.59;5525273;26;20260;-78
2024/04/11 07:33:35;;;;;;;7.97;2.70;;;;;;;-145.69;58.82;52119.63;5525072;26;20233;-79
2024/04/11 07:36:07;;;;;;;8.23;2.50;;;;;;;-145.69;58.04;52115.66;5524359;26;20233;-79
2024/04/11 07:38:35;;;;;;;10.37;2.97;;;;;;;-145.69;57.74;52127.53;5525050;26;20708;-78
2024/04/11 07:41:16;;;;;;;6.70;2.60;;;;;;;-145.69;56.66;52123.56;5524833;26;20225;-78
2024/04/11 07:43:45;;;;;;;6.80;2.23;;;;;;;-145.69;56.51;52089.91;5524726;26;20316;-79
2024/04/11 07:46:14;;;;;;;8.00;2.37;;;;;;;-145.69;56.25;52107.72;5524041;26;20271;-78
2024/04/11 07:48:41;;;;;;;8.57;2.70;;;;;;;-145.69;55.39;52082.00;5525068;26;20221;-78
2024/04/11 07:51:09;;;;;;;6.70;2.70;;;;;;;-145.69;54.83;52072.09;5524804;26;20700;-78
2024/04/11 07:53:38;;;;;;;12.17;3.10;;;;;;;-145.69;54.79;52107.72;5525007;26;20221;-78
2024/04/11 07:56:06;;;;;;;5.67;2.77;;;;;;;-145.69;54.25;52056.25;5516319;26;20239;-76
2024/04/11 07:58:33;;;;;;;9.87;3.30;;;;;;;-145.69;51.03;52095.84;5523858;26;20226;-79
2024/04/11 08:01:02;;;;;;;7.17;2.60;;;;;;;-145.69;52.20;52105.75;5524612;26;20272;-78
2024/04/11 08:03:27;;;;;;;7.43;2.70;;;;;;;-145.69;52.54;52093.88;5523965;26;20293;-77
2024/04/11 08:05:56;;;;;;;8.60;2.43;;;;;;;-145.69;51.66;52113.66;5528158;26;20233;-77
2024/04/11 08:08:22;;;;;;;4.87;2.37;;;;;;;-145.69;51.73;52064.16;5528271;25;20264;-77
2024/04/11 08:11:02;;;;;;;7.27;2.20;;;;;;;-145.69;51.98;52080.00;5527349;26;20277;-77
2024/04/11 08:13:28;;;;;;;7.47;2.20;;;;;;;-145.69;51.75;52076.03;5490812;26;20252;-77
2024/04/11 08:15:59;;;;;;;9.77;2.30;;;;;;;-145.69;52.48;52068.13;5527871;26;20242;-77
2024/04/11 08:18:27;;;;;;;13.23;3.00;;;;;;;-145.69;51.21;52072.09;5524046;26;20260;-78
2024/04/11 08:20:59;;;;;;;6.67;2.57;;;;;;;-145.69;51.01;52103.78;5490743;26;20223;-78
2024/04/11 08:23:25;;;;;;;9.67;2.77;;;;;;;-145.69;50.76;52082.00;5490889;26;20732;-77
2024/04/11 08:25:56;;;;;;;8.23;2.60;;;;;;;-145.69;51.66;52050.31;5506361;26;20237;-77
2024/04/11 08:28:27;;;;;;;11.77;2.80;;;;;;;-145.69;51.06;52054.25;5528046;26;20226;-77
2024/04/11 08:30:56;;;;;;;5.57;2.53;;;;;;;-145.69;50.23;52074.06;5527869;26;20649;-77
2024/04/11 08:33:24;;;;;;;8.43;2.80;;;;;;;-145.69;50.25;52076.03;5528102;26;20225;-77
2024/04/11 08:35:53;;;;;;;8.53;2.87;;;;;;;-145.69;48.79;52070.09;5518104;26;20614;-77
2024/04/11 08:38:22;;;;;;;7.20;2.90;;;;;;;-145.69;49.40;52056.25;5490630;26;20538;-78
2024/04/11 08:40:51;;;;;;;6.37;2.40;;;;;;;-145.69;49.59;52060.22;5490667;26;20222;-78
2024/04/11 08:43:22;;;;;;;6.10;2.73;;;;;;;-145.69;47.45;52107.72;5490820;26;20275;-77
2024/04/11 08:45:52;;;;;;;5.80;3.10;;;;;;;-145.69;48.01;52052.28;5490881;26;20222;-77
2024/04/11 08:48:18;;;;;;;9.30;2.70;;;;;;;-145.69;49.78;52040.41;5490870;26;20218;-77
2024/04/11 08:50:49;;;;;;;11.57;2.90;;;;;;;-145.69;49.67;52044.38;5490919;26;20294;-76
2024/04/11 08:53:17;;;;;;;8.77;2.37;;;;;;;-145.69;47.36;52048.31;5492104;26;20282;-78
2024/04/11 08:55:46;;;;;;;8.83;2.47;;;;;;;-145.69;47.78;52068.13;5503145;26;20284;-78
2024/04/11 08:58:12;;;;;;;17.00;4.03;;;;;;;-145.69;48.72;52052.28;5527905;26;20225;-78
2024/04/11 09:00:48;;;;;;;13.20;4.00;;;;;;;-145.69;47.80;52060.22;5516705;26;20448;-78
2024/04/11 09:03:15;;;;;;;11.77;3.47;;;;;;;-145.69;46.97;52060.22;5491155;26;20724;-79
2024/04/11 09:05:49;;;;;;;6.40;2.67;;;;;;;-145.69;46.29;52038.44;5490627;26;20265;-78
2024/04/11 09:08:16;;;;;;;5.53;2.40;;;;;;;-145.69;45.44;52048.31;5490032;26;20834;-78
2024/04/11 09:10:45;;;;;;;9.60;2.83;;;;;;;-145.69;44.57;52066.16;5513106;26;20225;-78
2024/04/11 09:13:15;;;;;;;9.50;2.73;;;;;;;-145.69;45.68;52034.47;5524521;26;20225;-77
2024/04/11 09:15:48;;;;;;;11.53;2.90;;;;;;;-145.69;44.39;52095.84;5525047;26;20777;-78
2024/04/11 09:18:25;;;;;;;6.27;2.20;;;;;;;-145.69;43.29;52060.22;5524206;26;20217;-78
2024/04/11 09:21:04;;;;;;;7.00;2.50;;;;;;;-145.69;45.01;52064.16;5527429;26;20252;-77
2024/04/11 09:23:34;;;;;;;5.03;2.00;;;;;;;-145.69;44.34;52054.25;5536598;25;20217;-78
2024/04/11 09:26:02;;;;;;;5.83;2.47;;;;;;;-145.69;44.13;52042.38;5545565;25;20234;-78
2024/04/11 09:28:28;;;;;;;9.48;2.70;;;;;;;-145.69;43.90;52042.38;5489359;26;20218;-77
2024/04/11 09:31:00;;;;;;;7.15;2.60;;;;;;;-145.69;43.88;52044.38;5486586;26;20269;-77
2024/04/11 09:33:34;;;;;;;7.93;2.60;;;;;;;-145.69;43.49;52050.31;5486538;26;20227;-78
2024/04/11 09:36:08;;;;;;;5.25;2.72;;;;;;;-145.69;43.30;52044.38;5486616;26;20554;-77
2024/04/11 09:38:36;;;;;;;6.22;2.65;;;;;;;-145.69;43.46;52044.38;5487009;26;20278;-77
2024/04/11 09:41:04;;;;;;;7.82;2.78;;;;;;;-145.69;43.45;52032.47;5487101;26;20282;-77
2024/04/11 09:43:34;;;;;;;4.93;2.22;;;;;;;-145.69;43.13;52016.66;5488669;26;20320;-76
2024/04/11 09:46:06;;;;;;;9.20;2.40;;;;;;;-145.69;42.57;52040.41;5490232;26;20264;-78
2024/04/11 09:48:32;;;;;;;5.75;2.13;;;;;;;-145.69;41.98;52034.47;5490493;26;20290;-78
2024/04/11 09:51:05;;;;;;;6.97;2.35;;;;;;;-145.69;43.53;52048.31;5521972;26;20337;-77
2024/04/11 09:53:36;;;;;;;11.98;2.20;;;;;;;-145.69;42.95;52006.75;5526662;26;20298;-77
2024/04/11 09:56:08;;;;;;;6.07;2.22;;;;;;;-145.69;41.55;52040.41;5526330;26;20229;-77
2024/04/11 09:58:38;;;;;;;4.95;2.50;;;;;;;-145.69;41.84;52040.41;5526574;26;20242;-78
2024/04/11 10:01:30;;;;;;;7.05;2.15;;;;;;;-145.69;40.75;52020.59;5513277;26;20218;-77
2024/04/11 10:04:04;;;;;;;6.55;1.40;;;;;;;-145.69;38.64;52012.69;5489918;26;20343;-78
2024/04/11 10:06:35;;;;;;;3.13;1.10;;;;;;;-145.69;38.22;52010.69;5490030;26;20222;-78
2024/04/11 10:09:11;;;;;;;8.10;2.20;;;;;;;-145.69;38.60;52032.47;5488986;26;20326;-78
2024/04/11 10:11:40;;;;;;;5.35;1.90;;;;;;;-145.69;40.43;51998.81;5489716;26;20717;-79
2024/04/11 10:14:16;;;;;;;5.43;2.13;;;;;;;-145.69;40.36;52016.66;5489670;26;20218;-78
2024/04/11 10:16:48;;;;;;;5.20;2.30;;;;;;;-145.69;40.63;52000.81;5489689;26;20222;-78
2024/04/11 10:19:26;;;;;;;6.57;2.33;;;;;;;-145.69;41.18;52016.66;5521632;26;20306;-80
2024/04/11 10:21:55;;;;;;;6.88;2.38;;;;;;;-145.69;41.22;52020.59;5526656;26;20229;-80
2024/04/11 10:24:27;;;;;;;9.35;2.55;;;;;;;-145.69;40.40;52002.78;5526275;26;20230;-78
2024/04/11 10:26:57;;;;;;;6.10;2.55;;;;;;;-145.69;40.54;52010.69;5524862;26;20229;-78
2024/04/11 10:29:26;;;;;;;5.05;2.42;;;;;;;-145.69;40.79;52044.38;5526084;26;20273;-79
2024/04/11 10:31:59;;;;;;;6.60;2.25;;;;;;;-145.69;40.15;52024.56;5526131;26;20557;-78
2024/04/11 10:34:34;;;;;;;6.00;2.22;;;;;;;-145.69;40.72;52014.66;5522855;26;20222;-79
2024/04/11 10:37:04;;;;;;;6.47;2.08;;;;;;;-145.69;40.12;52014.66;5489497;26;20578;-78
2024/04/11 10:39:35;;;;;;;4.38;2.13;;;;;;;-145.69;39.66;52024.56;5489662;26;20717;-77
2024/04/11 10:42:07;;;;;;;6.95;2.40;;;;;;;-145.69;39.85;52020.59;5489057;26;20222;-77
2024/04/11 10:44:34;;;;;;;5.50;1.90;;;;;;;-145.69;40.28;51996.84;5489199;26;20260;-77
2024/04/11 10:47:07;;;;;;;8.45;2.40;;;;;;;-145.69;40.05;52024.56;5489195;26;20619;-77
2024/04/11 10:49:41;;;;;;;6.25;2.10;;;;;;;-145.69;40.57;51996.84;5489027;26;20227;-77
2024/04/11 10:52:10;;;;;;;7.53;2.72;;;;;;;-145.69;39.70;51975.06;5492787;26;20245;-77
2024/04/11 10:54:39;;;;;;;6.20;2.38;;;;;;;-145.69;39.83;52028.53;5490220;26;20226;-80
2024/04/11 10:57:16;;;;;;;6.43;1.95;;;;;;;-145.69;39.66;52020.59;5489341;26;20230;-77
2024/04/11 10:59:50;;;;;;;4.53;2.00;;;;;;;-145.69;40.17;52002.78;5521061;26;20240;-77
2024/04/11 11:02:24;;;;;;;4.93;2.20;;;;;;;-145.69;39.24;52018.63;5525414;26;20272;-77
2024/04/11 11:04:50;;;;;;;4.60;1.70;;;;;;;-145.69;40.20;51984.97;5525794;26;20220;-77
2024/04/11 11:07:31;;;;;;;8.23;2.00;;;;;;;-145.69;38.95;51996.84;5526107;26;20222;-79
2024/04/11 11:09:57;;;;;;;6.82;1.85;;;;;;;-145.69;39.06;51981.00;5498617;26;20235;-77
2024/04/11 11:12:26;;;;;;;8.95;2.15;;;;;;;-145.69;38.91;51981.00;5513325;26;20756;-77
2024/04/11 11:14:53;;;;;;;12.93;2.25;;;;;;;-145.69;39.27;51990.91;5525645;26;20333;-77
2024/04/11 11:17:27;;;;;;;7.40;2.40;;;;;;;-145.69;39.09;51973.06;5525815;26;20230;-77
2024/04/11 11:19:55;;;;;;;7.38;2.00;;;;;;;-145.69;38.71;51986.94;5525923;26;20739;-79
2024/04/11 11:22:29;;;;;;;9.25;2.85;;;;;;;-145.69;38.24;52016.66;5525078;26;20302;-77
2024/04/11 11:25:00;;;;;;;10.90;2.35;;;;;;;-145.69;38.78;51988.91;5525479;26;20232;-77